Time;durP1;ratioP1;P1;durP2;ratioP2;P2;SDS_P1;SDS_P2;PMS_P1;PMS_P2;Temp;Humidity;BMP_temperature;BMP_pressure;BME280_temperature;BME280_humidity;BME280_pressure;Samples;Min_cycle;Max_cycle;Signal;HPM_P1;HPM_P2
2022/09/21 00:00:00;;;;;;;8.50;2.70;;;;;;;15.21;100.00;94640.06;4980004;28;20113;-91
2022/09/21 00:02:27;;;;;;;6.57;2.47;;;;;;;15.64;100.00;94633.75;4962726;28;20040;-91
2022/09/21 00:04:53;;;;;;;7.50;2.47;;;;;;;15.58;100.00;94633.06;4962839;28;20031;-90
2022/09/21 00:07:18;;;;;;;4.60;2.22;;;;;;;15.85;100.00;94634.16;4946812;28;20026;-91
2022/09/21 00:09:44;;;;;;;10.63;2.35;;;;;;;15.36;100.00;94631.88;4962875;28;20037;-91
2022/09/21 00:12:09;;;;;;;7.85;3.15;;;;;;;15.36;100.00;94634.50;4946778;28;20129;-91
2022/09/21 00:14:34;;;;;;;6.68;2.30;;;;;;;15.75;100.00;94636.97;4963172;28;20042;-90
2022/09/21 00:17:00;;;;;;;8.23;2.30;;;;;;;15.57;100.00;94634.13;4947054;28;20068;-92
2022/09/21 00:19:26;;;;;;;3.05;1.90;;;;;;;15.89;100.00;94632.50;4980007;28;20054;-91
2022/09/21 00:21:55;;;;;;;5.53;1.98;;;;;;;15.66;100.00;94636.88;4962672;28;20030;-92
2022/09/21 00:24:21;;;;;;;5.75;2.15;;;;;;;15.06;100.00;94635.81;4962400;28;20089;-90
2022/09/21 00:26:46;;;;;;;7.30;1.67;;;;;;;15.35;100.00;94640.06;4946613;28;20030;-91
2022/09/21 00:29:12;;;;;;;10.68;2.20;;;;;;;15.25;100.00;94646.31;4962291;28;20031;-90
2022/09/21 00:31:38;;;;;;;7.55;2.15;;;;;;;15.22;100.00;94641.63;4946495;28;20022;-91
2022/09/21 00:34:06;;;;;;;6.78;2.00;;;;;;;15.07;100.00;94640.78;4962613;28;20030;-91
2022/09/21 00:39:54;;;;;;;5.03;2.20;;;;;;;15.44;100.00;94635.69;4979394;28;20037;-90
2022/09/21 00:42:31;;;;;;;6.68;2.13;;;;;;;15.75;100.00;94637.78;4962212;28;20031;-92
2022/09/21 00:44:56;;;;;;;6.82;2.25;;;;;;;15.53;100.00;94641.84;4962010;28;20085;-91
2022/09/21 00:47:24;;;;;;;8.52;2.10;;;;;;;15.41;100.00;94636.25;4946152;28;20034;-91
2022/09/21 00:49:53;;;;;;;4.43;2.35;;;;;;;15.64;100.00;94631.91;4961883;28;20352;-91
2022/09/21 00:52:22;;;;;;;6.03;2.20;;;;;;;15.51;100.00;94635.31;4946132;28;20027;-91
2022/09/21 00:54:51;;;;;;;8.38;1.90;;;;;;;15.40;100.00;94632.84;4961812;28;20326;-91
2022/09/21 00:57:20;;;;;;;8.15;2.58;;;;;;;15.61;100.00;94629.06;4961645;28;20443;-90
2022/09/21 00:59:45;;;;;;;5.38;1.85;;;;;;;15.55;100.00;94631.00;4946079;28;20050;-91
2022/09/21 01:02:11;;;;;;;5.78;1.80;;;;;;;15.34;100.00;94630.59;4962237;28;20322;-91
2022/09/21 01:04:37;;;;;;;3.58;1.77;;;;;;;15.08;100.00;94636.28;4945764;28;20031;-91
2022/09/21 01:07:10;;;;;;;3.30;2.05;;;;;;;15.00;100.00;94634.31;4945846;28;20440;-91
2022/09/21 01:09:36;;;;;;;4.63;2.00;;;;;;;15.10;100.00;94634.13;4962038;28;20459;-91
2022/09/21 01:12:25;;;;;;;3.03;1.40;;;;;;;15.52;100.00;94629.72;4961676;28;20030;-91
2022/09/21 01:15:21;;;;;;;5.00;1.90;;;;;;;15.32;100.00;94633.50;4961718;28;20027;-91
2022/09/21 01:17:51;;;;;;;3.97;1.80;;;;;;;14.89;100.00;94634.47;4961607;28;20101;-91
2022/09/21 01:20:42;;;;;;;5.00;1.60;;;;;;;15.21;100.00;94640.06;4961272;28;20034;-91
2022/09/21 01:23:17;;;;;;;3.00;1.40;;;;;;;15.41;100.00;94636.25;4961521;28;20047;-91
2022/09/21 01:26:17;;;;;;;10.45;1.80;;;;;;;15.57;100.00;94638.66;4961427;28;20322;-91
2022/09/21 01:29:01;;;;;;;5.60;1.95;;;;;;;15.27;100.00;94641.53;4961403;28;20432;-91
2022/09/21 01:31:28;;;;;;;;;;;;;;;15.55;100.00;94642.34;4961828;28;20065;-91
2022/09/21 01:33:57;;;;;;;7.65;1.58;;;;;;;14.95;100.00;94635.19;4945370;28;20248;-91
2022/09/21 01:36:27;;;;;;;4.85;1.70;;;;;;;14.89;100.00;94642.38;4945638;28;20455;-91
2022/09/21 01:39:03;;;;;;;3.67;1.80;;;;;;;15.07;100.00;94643.44;4961196;28;20029;-92
2022/09/21 01:41:30;;;;;;;8.90;1.83;;;;;;;15.29;100.00;94639.38;4961113;28;20030;-91
2022/09/21 01:44:00;;;;;;;4.20;1.92;;;;;;;14.79;100.00;94645.16;4945171;28;20035;-91
2022/09/21 01:46:28;;;;;;;3.65;1.50;;;;;;;15.03;100.00;94645.06;4961038;28;20341;-90
2022/09/21 01:48:58;;;;;;;2.28;1.17;;;;;;;15.19;100.00;94642.97;4944956;28;20054;-91
2022/09/21 01:51:27;;;;;;;6.30;1.63;;;;;;;14.64;100.00;94639.03;4960785;28;20059;-91
2022/09/21 01:53:56;;;;;;;6.68;1.17;;;;;;;15.16;100.00;94637.47;4961027;28;20105;-91
2022/09/21 01:56:42;;;;;;;3.00;1.23;;;;;;;15.08;100.00;94646.84;4960816;28;20027;-91
2022/09/21 01:59:26;;;;;;;6.57;1.35;;;;;;;15.19;100.00;94648.25;4960759;28;20033;-90
2022/09/21 02:01:52;;;;;;;;;;;;;;;14.88;100.00;94647.94;4961348;28;20034;-92
2022/09/21 02:04:18;;;;;;;2.45;1.30;;;;;;;14.68;100.00;94645.28;4960902;28;19910;-91
2022/09/21 02:10:08;;;;;;;3.08;1.10;;;;;;;14.62;100.00;94651.72;4977933;28;20487;-91
2022/09/21 02:12:34;;;;;;;4.35;1.10;;;;;;;14.81;100.00;94651.75;4945001;28;20425;-90
2022/09/21 02:15:00;;;;;;;3.90;1.23;;;;;;;15.13;100.00;94655.47;4960587;28;20113;-91
2022/09/21 02:18:06;;;;;;;3.65;1.50;;;;;;;15.20;100.00;94654.28;4944957;28;20081;-91
2022/09/21 02:20:38;;;;;;;9.85;1.45;;;;;;;14.63;100.00;94655.13;4973785;28;20043;-92
2022/09/21 02:23:23;;;;;;;1.92;1.23;;;;;;;15.01;100.00;94649.09;4960762;28;20031;-90
2022/09/21 02:26:03;;;;;;;3.10;1.40;;;;;;;14.62;100.00;94656.19;4960726;28;20031;-91
2022/09/21 02:28:44;;;;;;;2.13;1.20;;;;;;;14.97;100.00;94652.28;4960846;28;20388;-89
2022/09/21 02:31:30;;;;;;;3.35;1.17;;;;;;;15.01;100.00;94649.09;4960605;28;20081;-91
2022/09/21 02:34:12;;;;;;;2.13;1.40;;;;;;;14.82;100.00;94647.22;4963831;28;20086;-90
2022/09/21 02:36:49;;;;;;;3.08;1.50;;;;;;;14.87;100.00;94652.44;4960988;28;20496;-91
2022/09/21 02:39:32;;;;;;;5.13;1.67;;;;;;;14.90;100.00;94646.59;4959957;28;20092;-91
2022/09/21 02:42:06;;;;;;;5.75;2.08;;;;;;;14.34;100.00;94654.19;4960580;28;20041;-91
2022/09/21 02:44:37;;;;;;;2.90;1.63;;;;;;;14.56;100.00;94656.28;4977441;28;20046;-90
2022/09/21 02:47:26;;;;;;;5.03;1.80;;;;;;;14.57;100.00;94652.56;4959817;28;20030;-90
2022/09/21 02:49:57;;;;;;;5.75;1.80;;;;;;;14.67;100.00;94648.22;4960158;28;20037;-90
2022/09/21 02:52:24;;;;;;;10.50;2.08;;;;;;;14.52;100.00;94654.50;4960776;28;20037;-91
2022/09/21 02:54:51;;;;;;;2.00;1.40;;;;;;;14.93;100.00;94661.06;4944674;28;20081;-91
2022/09/21 02:57:22;;;;;;;6.90;2.20;;;;;;;14.90;100.00;94659.78;4960094;28;20030;-90
2022/09/21 02:59:49;;;;;;;3.65;1.55;;;;;;;14.93;100.00;94669.75;4944651;28;20029;-90
2022/09/21 03:02:15;;;;;;;4.35;1.77;;;;;;;14.69;100.00;94661.91;4963150;28;20027;-91
2022/09/21 03:04:43;;;;;;;3.38;1.52;;;;;;;14.99;100.00;94667.81;4963630;28;20026;-90
2022/09/21 03:07:11;;;;;;;2.05;1.30;;;;;;;14.81;100.00;94664.94;4963671;28;20026;-90
2022/09/21 03:09:40;;;;;;;2.83;1.63;;;;;;;14.78;100.00;94664.72;4948000;28;20031;-91
2022/09/21 03:12:05;;;;;;;4.30;1.92;;;;;;;14.33;100.00;94665.00;4963473;28;20129;-89
2022/09/21 03:14:31;;;;;;;6.32;2.17;;;;;;;13.91;100.00;94662.09;4963721;28;20109;-89
2022/09/21 03:16:57;;;;;;;5.03;1.92;;;;;;;14.53;100.00;94659.47;4963899;28;20058;-90
2022/09/21 03:19:24;;;;;;;10.05;1.80;;;;;;;14.59;100.00;94667.31;4963648;28;20043;-90
2022/09/21 03:21:50;;;;;;;5.25;1.75;;;;;;;14.81;100.00;94659.66;4963617;28;20034;-90
2022/09/21 03:24:44;;;;;;;4.35;1.67;;;;;;;14.63;100.00;94666.47;4963411;28;20035;-90
2022/09/21 03:27:00;;;;;;;2.85;1.38;;;;;;;14.51;100.00;94677.44;4966081;28;20073;-90
2022/09/21 03:29:26;;;;;;;2.03;1.35;;;;;;;14.24;100.00;94678.84;4963271;28;20448;-91
2022/09/21 03:31:53;;;;;;;7.60;1.67;;;;;;;14.50;100.00;94681.16;4980437;28;20126;-90
2022/09/21 03:34:19;;;;;;;2.63;0.93;;;;;;;14.34;100.00;94674.47;4963440;28;20035;-90
2022/09/21 03:36:44;;;;;;;1.60;0.90;;;;;;;14.74;97.66;94675.03;4963297;28;20023;-92
2022/09/21 03:39:10;;;;;;;3.28;1.00;;;;;;;14.42;99.09;94685.19;4947405;28;20396;-91
2022/09/21 03:41:36;;;;;;;3.45;0.70;;;;;;;14.48;95.05;94679.84;4963117;28;20034;-90
2022/09/21 03:44:01;;;;;;;1.60;0.73;;;;;;;14.72;89.44;94682.44;4963094;28;20459;-91
2022/09/21 03:46:27;;;;;;;1.20;0.63;;;;;;;14.62;87.88;94679.91;4946967;28;20043;-91
2022/09/21 03:48:53;;;;;;;5.75;0.65;;;;;;;14.66;91.15;94686.22;4963314;28;20423;-90
2022/09/21 03:51:18;;;;;;;5.00;0.77;;;;;;;14.38;89.22;94688.69;4963021;28;20034;-91
2022/09/21 03:53:44;;;;;;;1.00;0.70;;;;;;;14.64;86.08;94688.34;4962858;28;20041;-93
2022/09/21 03:56:09;;;;;;;2.20;0.60;;;;;;;14.48;85.92;94696.44;4947054;28;20054;-90
2022/09/21 03:58:35;;;;;;;3.10;0.65;;;;;;;14.38;81.13;94691.31;4962710;28;20030;-91
2022/09/21 04:01:02;;;;;;;5.65;0.63;;;;;;;14.49;76.31;94695.41;4963035;28;20452;-91
2022/09/21 04:03:28;;;;;;;1.42;0.70;;;;;;;14.76;75.49;94696.63;4963081;28;20023;-91
2022/09/21 04:05:54;;;;;;;0.75;0.60;;;;;;;14.41;76.30;94696.03;4946909;28;20026;-90
2022/09/21 04:08:19;;;;;;;0.65;0.50;;;;;;;14.47;72.53;94700.16;4962805;28;20053;-90
2022/09/21 04:10:45;;;;;;;1.67;0.60;;;;;;;14.67;69.30;94696.47;4946741;28;20034;-90
2022/09/21 04:13:11;;;;;;;1.98;0.70;;;;;;;14.72;68.07;94700.16;4962162;28;20034;-90
2022/09/21 04:15:37;;;;;;;2.25;0.60;;;;;;;14.59;66.18;94699.75;4963140;28;20026;-89
2022/09/21 04:18:02;;;;;;;0.93;0.50;;;;;;;14.48;66.73;94709.63;4980091;28;20034;-90
2022/09/21 04:20:28;;;;;;;2.80;0.40;;;;;;;14.31;69.57;94710.13;4946320;28;20441;-90
2022/09/21 04:22:54;;;;;;;2.50;0.60;;;;;;;14.15;74.68;94717.41;4943221;29;20082;-90
2022/09/21 04:25:19;;;;;;;1.48;0.70;;;;;;;14.44;80.10;94716.53;4943291;29;20039;-91
2022/09/21 04:27:45;;;;;;;4.45;0.80;;;;;;;14.39;85.65;94730.56;4943253;29;20038;-90
2022/09/21 04:30:12;;;;;;;2.35;0.80;;;;;;;14.42;86.47;94723.94;4943151;29;20030;-89
2022/09/21 04:32:38;;;;;;;3.90;0.77;;;;;;;14.40;82.63;94734.75;4942871;29;20023;-91
2022/09/21 04:35:04;;;;;;;2.70;0.73;;;;;;;14.33;80.52;94739.59;4943455;29;20030;-90
2022/09/21 04:37:29;;;;;;;2.85;1.00;;;;;;;13.95;84.92;94739.47;4942921;29;20029;-90
2022/09/21 04:39:55;;;;;;;1.15;0.50;;;;;;;13.65;92.33;94742.13;4943111;29;20126;-91
2022/09/21 04:42:20;;;;;;;1.75;0.73;;;;;;;13.91;92.36;94749.00;4942821;29;20055;-90
2022/09/21 04:44:45;;;;;;;4.55;0.90;;;;;;;13.90;95.12;94753.47;4942771;29;20045;-89
2022/09/21 04:47:14;;;;;;;1.98;0.82;;;;;;;13.95;97.12;94753.44;4942885;29;20037;-87
2022/09/21 04:49:40;;;;;;;6.00;1.05;;;;;;;14.09;95.63;94755.41;4958443;29;20031;-87
2022/09/21 04:52:05;;;;;;;6.32;1.30;;;;;;;13.25;100.00;94754.53;4942439;29;20042;-86
2022/09/21 04:54:31;;;;;;;3.33;1.50;;;;;;;13.62;96.05;94753.19;4942300;29;20023;-86
2022/09/21 04:56:56;;;;;;;3.80;1.20;;;;;;;13.43;100.00;94751.25;4942421;29;20035;-87
2022/09/21 04:59:22;;;;;;;2.60;1.45;;;;;;;13.83;100.00;94763.56;4942612;29;20023;-86
2022/09/21 05:01:47;;;;;;;3.13;1.77;;;;;;;13.99;100.00;94767.63;4926552;29;20027;-87
2022/09/21 05:04:13;;;;;;;8.20;3.35;;;;;;;13.95;100.00;94769.25;4942413;29;20039;-87
2022/09/21 05:06:38;;;;;;;5.50;2.20;;;;;;;13.95;100.00;94769.25;4942541;29;20083;-87
2022/09/21 05:11:48;;;;;;;6.00;2.50;;;;;;;14.08;100.00;94780.19;4944877;29;20062;-88
2022/09/21 05:14:13;;;;;;;5.63;2.83;;;;;;;14.09;100.00;94772.00;4942458;29;20031;-87
2022/09/21 05:16:39;;;;;;;7.18;3.75;;;;;;;13.84;100.00;94773.84;4957016;28;20046;-87
2022/09/21 05:19:04;;;;;;;8.85;3.50;;;;;;;14.17;100.00;94783.00;4977240;28;20045;-87
2022/09/21 05:21:32;;;;;;;7.85;3.60;;;;;;;14.16;100.00;94782.22;4977258;28;20109;-87
2022/09/21 05:23:58;;;;;;;8.23;3.42;;;;;;;14.03;100.00;94786.31;4976621;28;20041;-86
2022/09/21 05:26:24;;;;;;;7.18;3.15;;;;;;;14.28;100.00;94785.25;4960870;28;20464;-88
2022/09/21 05:28:50;;;;;;;6.65;3.10;;;;;;;14.41;100.00;94783.78;4977336;28;20459;-88
2022/09/21 05:31:34;;;;;;;8.63;2.72;;;;;;;13.86;100.00;94791.97;4975331;28;20034;-87
2022/09/21 05:34:13;;;;;;;6.78;3.03;;;;;;;13.48;100.00;94795.19;4978135;28;20112;-87
2022/09/21 05:37:11;;;;;;;9.73;2.88;;;;;;;13.78;100.00;94803.13;4966649;28;20019;-87
2022/09/21 05:39:37;;;;;;;8.15;2.65;;;;;;;13.95;100.00;94806.13;4970743;28;20058;-87
2022/09/21 05:42:03;;;;;;;2.85;1.80;;;;;;;14.14;100.00;94808.84;4961261;28;20441;-87
2022/09/21 05:44:29;;;;;;;5.20;2.13;;;;;;;14.04;100.00;94818.69;4945170;28;20036;-87
2022/09/21 05:47:04;;;;;;;3.42;1.85;;;;;;;14.24;100.00;94820.34;4961001;28;20090;-87
2022/09/21 05:49:45;;;;;;;4.07;1.85;;;;;;;14.34;100.00;94832.63;4960919;28;20443;-87
2022/09/21 05:52:32;;;;;;;6.90;2.45;;;;;;;14.22;100.00;94843.56;4978312;28;20034;-87
2022/09/21 05:55:00;;;;;;;8.57;3.17;;;;;;;14.34;100.00;94837.91;4960970;28;20443;-87
2022/09/21 05:57:32;;;;;;;9.13;3.85;;;;;;;14.15;100.00;94849.16;4977871;28;20035;-87
2022/09/21 06:00:11;;;;;;;5.80;3.58;;;;;;;13.95;100.00;94856.19;4977736;28;20030;-88
2022/09/21 06:03:01;;;;;;;6.22;3.30;;;;;;;14.60;100.00;94859.53;4961023;28;20192;-87
2022/09/21 06:05:27;;;;;;;6.72;3.40;;;;;;;14.91;100.00;94856.56;4977717;28;20077;-87
2022/09/21 06:07:52;;;;;;;6.93;3.42;;;;;;;14.33;100.00;94860.03;4961218;28;20417;-87
2022/09/21 06:10:18;;;;;;;9.73;3.38;;;;;;;15.28;100.00;94851.63;4960675;28;20038;-87
2022/09/21 06:12:43;;;;;;;6.75;3.35;;;;;;;15.63;100.00;94854.81;4960946;28;20042;-87
2022/09/21 06:15:12;;;;;;;7.15;3.20;;;;;;;15.65;100.00;94855.34;4961107;28;20417;-87
2022/09/21 06:17:38;;;;;;;5.38;3.20;;;;;;;15.80;100.00;94854.28;4977982;28;20035;-87
2022/09/21 06:20:05;;;;;;;11.50;3.05;;;;;;;15.86;100.00;94862.94;4960753;28;20035;-87
2022/09/21 06:22:31;;;;;;;5.15;2.72;;;;;;;15.97;100.00;94855.66;4960911;28;20082;-87
2022/09/21 06:24:56;;;;;;;7.95;2.65;;;;;;;15.91;100.00;94860.22;4960637;28;20037;-87
2022/09/21 06:27:22;;;;;;;7.90;2.40;;;;;;;16.39;100.00;94851.25;4960782;28;20030;-88
2022/09/21 06:29:47;;;;;;;7.22;2.10;;;;;;;16.85;99.60;94855.97;4960534;28;20031;-87
2022/09/21 06:32:13;;;;;;;5.55;2.00;;;;;;;16.19;100.00;94844.44;4960805;28;20077;-87
2022/09/21 06:34:38;;;;;;;6.72;1.60;;;;;;;16.30;100.00;94845.06;4960634;28;20417;-87
2022/09/21 06:37:03;;;;;;;2.92;1.00;;;;;;;16.44;100.00;94852.25;4947514;28;20031;-88
2022/09/21 06:39:29;;;;;;;6.65;1.20;;;;;;;16.57;100.00;94853.31;4980585;28;20030;-88
2022/09/21 06:41:55;;;;;;;6.10;1.27;;;;;;;16.46;100.00;94856.16;4981601;28;20121;-88
2022/09/21 06:44:20;;;;;;;6.68;1.27;;;;;;;16.79;100.00;94860.56;4981853;28;20031;-87
2022/09/21 06:46:46;;;;;;;5.43;1.20;;;;;;;16.59;100.00;94859.09;4948339;28;20026;-87
2022/09/21 06:49:11;;;;;;;7.28;1.10;;;;;;;16.60;100.00;94864.09;4964076;28;20057;-88
2022/09/21 06:51:36;;;;;;;3.92;0.95;;;;;;;16.66;100.00;94864.81;4981424;28;20030;-87
2022/09/21 06:54:02;;;;;;;4.53;1.40;;;;;;;17.04;100.00;94874.44;4964432;28;20038;-87
2022/09/21 06:56:27;;;;;;;3.45;1.20;;;;;;;17.18;100.00;94872.53;4963940;28;20038;-87
2022/09/21 06:58:53;;;;;;;5.22;0.80;;;;;;;17.31;100.00;94870.94;4963847;28;20383;-87
2022/09/21 07:01:19;;;;;;;5.28;0.90;;;;;;;17.30;95.09;94872.03;4964024;28;20109;-88
2022/09/21 07:03:48;;;;;;;3.03;0.88;;;;;;;17.13;100.00;94871.88;4964180;28;20096;-88
2022/09/21 07:06:14;;;;;;;3.00;0.80;;;;;;;17.32;98.03;94871.75;4981166;28;20023;-88
2022/09/21 07:08:43;;;;;;;4.22;1.00;;;;;;;17.02;98.12;94860.69;4963912;28;20027;-88
2022/09/21 07:11:09;;;;;;;3.65;0.82;;;;;;;17.46;100.00;94869.03;4948063;28;20033;-87
2022/09/21 07:13:35;;;;;;;3.40;0.85;;;;;;;17.65;99.02;94855.66;4963748;28;20030;-87
2022/09/21 07:16:05;;;;;;;3.58;0.80;;;;;;;17.61;100.00;94858.09;4948190;28;20129;-87
2022/09/21 07:18:33;;;;;;;6.72;1.05;;;;;;;17.31;100.00;94868.28;4948029;28;20153;-88
2022/09/21 07:21:02;;;;;;;1.73;0.75;;;;;;;17.42;98.38;94865.44;4963650;28;20031;-87
2022/09/21 07:23:28;;;;;;;2.95;1.17;;;;;;;17.48;100.00;94865.03;4947947;28;20027;-88
2022/09/21 07:25:53;;;;;;;5.82;1.20;;;;;;;17.33;100.00;94870.66;4963580;28;20090;-87
2022/09/21 07:28:19;;;;;;;3.15;0.95;;;;;;;17.65;98.84;94874.19;4963524;28;20037;-87
2022/09/21 07:30:44;;;;;;;6.97;0.90;;;;;;;17.67;93.96;94867.53;4963882;28;20451;-89
2022/09/21 07:33:10;;;;;;;5.25;0.75;;;;;;;16.84;91.65;94871.06;4963396;28;20033;-89
2022/09/21 07:35:35;;;;;;;4.53;1.08;;;;;;;17.18;92.89;94869.91;4963321;28;20042;-89
2022/09/21 07:38:03;;;;;;;1.38;0.70;;;;;;;17.75;94.48;94873.19;4963466;28;20126;-89
2022/09/21 07:40:29;;;;;;;3.55;0.77;;;;;;;17.64;95.22;94872.63;4962859;28;20314;-89
2022/09/21 07:42:58;;;;;;;1.25;0.60;;;;;;;17.21;92.40;94876.44;4963310;28;20034;-89
2022/09/21 07:45:25;;;;;;;3.17;0.50;;;;;;;17.33;90.49;94883.91;4963255;28;20027;-88
2022/09/21 07:47:53;;;;;;;1.20;0.55;;;;;;;17.77;92.11;94893.00;4962141;28;20470;-89
2022/09/21 07:50:20;;;;;;;4.18;0.88;;;;;;;17.62;89.87;94894.13;4963706;28;20027;-89
2022/09/21 07:52:45;;;;;;;2.03;0.65;;;;;;;17.65;92.61;94898.84;4962906;28;20441;-89
2022/09/21 07:55:10;;;;;;;5.50;0.80;;;;;;;17.69;90.63;94906.19;4947176;28;20037;-88
2022/09/21 08:00:21;;;;;;;2.53;0.70;;;;;;;17.58;82.42;94917.00;4965458;28;20085;-90
2022/09/21 08:02:46;;;;;;;3.55;0.77;;;;;;;17.40;78.10;94916.03;4962725;28;20044;-89
2022/09/21 08:05:12;;;;;;;2.60;0.70;;;;;;;18.11;78.79;94906.03;4962577;28;20023;-89
2022/09/21 08:07:37;;;;;;;3.72;0.50;;;;;;;18.48;78.37;94915.47;4947070;28;20045;-88
2022/09/21 08:10:03;;;;;;;4.90;1.00;;;;;;;18.35;80.94;94919.78;4946862;28;20026;-88
2022/09/21 08:12:28;;;;;;;6.57;1.05;;;;;;;18.88;75.36;94916.59;4946837;28;20033;-90
2022/09/21 08:14:54;;;;;;;3.78;0.82;;;;;;;19.17;79.63;94924.09;4979800;28;20511;-89
2022/09/21 08:17:19;;;;;;;3.95;1.05;;;;;;;18.94;75.71;94915.38;4963225;28;20027;-89
2022/09/21 08:19:45;;;;;;;1.83;0.90;;;;;;;19.54;72.24;94918.53;4963125;28;20495;-89
2022/09/21 08:22:11;;;;;;;3.00;1.00;;;;;;;18.83;74.34;94920.16;4962491;28;20029;-89
2022/09/21 08:24:36;;;;;;;3.42;0.75;;;;;;;18.58;71.39;94922.41;4962883;28;20062;-89
2022/09/21 08:27:01;;;;;;;3.70;0.68;;;;;;;19.63;67.27;94915.88;4962716;28;20022;-88
2022/09/21 08:29:28;;;;;;;4.20;1.00;;;;;;;19.40;68.19;94926.63;4962464;28;20034;-88
2022/09/21 08:31:53;;;;;;;2.35;0.75;;;;;;;17.93;72.85;94922.59;4962429;28;20022;-90
2022/09/21 08:34:19;;;;;;;5.47;0.70;;;;;;;18.22;74.01;94933.91;4978072;28;20023;-90
2022/09/21 08:36:45;;;;;;;5.95;0.85;;;;;;;19.22;72.67;94925.78;4961900;28;20336;-88
2022/09/21 08:39:10;;;;;;;2.28;0.52;;;;;;;19.43;68.55;94927.88;4946394;28;20028;-89
2022/09/21 08:41:39;;;;;;;10.18;1.05;;;;;;;19.06;69.14;94930.75;4962190;28;20337;-88
2022/09/21 08:44:12;;;;;;;1.80;0.45;;;;;;;19.01;68.08;94923.72;4979075;28;20105;-88
2022/09/21 08:46:40;;;;;;;5.57;0.73;;;;;;;18.97;69.58;94924.59;4962040;28;20023;-90
2022/09/21 08:49:25;;;;;;;4.45;0.70;;;;;;;19.00;66.31;94930.09;4962103;28;20070;-89
2022/09/21 08:52:03;;;;;;;3.65;0.70;;;;;;;18.90;66.32;94927.69;4945635;28;20075;-89
2022/09/21 08:54:37;;;;;;;5.75;0.93;;;;;;;18.96;67.73;94921.16;4946061;28;20050;-88
2022/09/21 08:57:02;;;;;;;5.85;0.85;;;;;;;18.02;74.30;94932.47;4979427;28;20027;-89
2022/09/21 08:59:28;;;;;;;4.95;0.75;;;;;;;18.35;73.08;94929.59;4961385;28;20168;-89
2022/09/21 09:01:58;;;;;;;1.95;0.75;;;;;;;18.63;72.71;94921.47;4961793;28;20034;-90
2022/09/21 09:04:49;;;;;;;2.95;0.70;;;;;;;18.97;70.73;94922.75;4962013;28;20121;-89
2022/09/21 09:07:27;;;;;;;4.70;0.90;;;;;;;18.35;73.51;94922.44;4961737;28;20388;-90
2022/09/21 09:10:04;;;;;;;2.10;0.70;;;;;;;18.59;71.22;94933.81;4961756;28;20026;-88
2022/09/21 09:12:41;;;;;;;4.55;0.60;;;;;;;18.79;69.75;94927.19;4953289;28;20038;-88
2022/09/21 09:15:26;;;;;;;5.07;0.93;;;;;;;17.82;73.81;94934.50;4963467;28;20449;-89
2022/09/21 09:18:23;;;;;;;3.33;0.75;;;;;;;18.86;70.86;94927.50;4942305;29;20058;-87
2022/09/21 09:20:55;;;;;;;4.43;0.80;;;;;;;18.70;71.53;94934.31;4942496;29;20394;-87
2022/09/21 09:23:24;;;;;;;4.47;1.33;;;;;;;18.15;83.69;94933.53;4942512;29;20034;-88
2022/09/21 09:25:53;;;;;;;4.53;1.15;;;;;;;17.73;94.30;94934.44;4942221;29;20114;-88
2022/09/21 09:28:39;;;;;;;5.75;1.35;;;;;;;17.59;97.95;94929.16;4942863;29;20125;-89
2022/09/21 09:31:31;;;;;;;5.72;1.00;;;;;;;18.19;96.75;94934.50;4942328;29;20034;-87
2022/09/21 09:34:00;;;;;;;6.20;1.50;;;;;;;17.05;100.00;94931.56;4926267;29;20082;-88
2022/09/21 09:36:29;;;;;;;4.40;1.20;;;;;;;17.09;100.00;94925.41;4942144;29;20430;-88
2022/09/21 09:39:02;;;;;;;7.18;1.60;;;;;;;17.41;100.00;94927.44;4941919;29;20023;-87
2022/09/21 09:41:49;;;;;;;3.25;1.38;;;;;;;18.32;94.10;94922.25;4974919;28;20464;-87
2022/09/21 09:44:44;;;;;;;7.47;1.52;;;;;;;18.36;96.51;94924.00;4961001;28;20037;-87
2022/09/21 09:47:10;;;;;;;7.13;1.48;;;;;;;18.61;98.80;94918.34;4960906;28;20038;-87
2022/09/21 09:49:56;;;;;;;5.85;1.70;;;;;;;18.13;99.64;94917.94;4960776;28;20027;-87
2022/09/21 09:52:22;;;;;;;6.35;2.10;;;;;;;17.79;100.00;94921.88;4978305;28;20030;-88
2022/09/21 09:54:47;;;;;;;8.88;1.92;;;;;;;17.80;100.00;94931.38;4961061;28;20046;-88
2022/09/21 09:57:14;;;;;;;11.93;1.85;;;;;;;17.98;100.00;94920.91;4961065;28;20026;-88
2022/09/21 10:00:17;;;;;;;7.28;1.48;;;;;;;18.61;100.00;94932.41;4961012;28;20034;-88
2022/09/21 10:02:53;;;;;;;7.18;1.58;;;;;;;18.45;94.74;94936.53;4881290;29;20328;-88
2022/09/21 10:05:22;;;;;;;6.70;1.92;;;;;;;18.50;100.00;94931.88;4951194;28;20357;-87
2022/09/21 10:07:47;;;;;;;7.43;2.17;;;;;;;17.24;100.00;94928.81;4945113;28;20026;-87
2022/09/21 10:10:31;;;;;;;11.60;2.47;;;;;;;17.51;100.00;94930.66;4960382;28;20038;-87
2022/09/21 10:13:09;;;;;;;9.27;2.20;;;;;;;17.44;100.00;94929.47;4960615;28;20058;-88
2022/09/21 10:15:41;;;;;;;5.95;1.88;;;;;;;18.38;99.13;94926.38;4977653;28;20030;-88
2022/09/21 10:18:27;;;;;;;3.15;1.25;;;;;;;18.12;93.36;94921.66;4960547;28;20026;-89
2022/09/21 10:20:54;;;;;;;4.13;1.63;;;;;;;18.34;93.88;94920.06;4944854;28;20046;-88
2022/09/21 10:23:20;;;;;;;10.60;1.60;;;;;;;18.27;99.54;94920.50;4960711;28;20037;-87
2022/09/21 10:25:53;;;;;;;3.33;1.30;;;;;;;19.37;86.13;94916.63;4960754;28;20027;-88
2022/09/21 10:28:21;;;;;;;4.78;1.58;;;;;;;18.75;90.85;94923.59;4960727;28;20101;-87
2022/09/21 10:30:48;;;;;;;3.08;1.05;;;;;;;19.29;84.78;94920.81;4944675;28;20033;-87
2022/09/21 10:33:21;;;;;;;4.13;1.20;;;;;;;19.04;85.19;94912.47;4961027;28;20019;-87
2022/09/21 10:35:51;;;;;;;6.20;1.35;;;;;;;18.96;88.98;94921.16;4960686;28;20352;-88
2022/09/21 10:38:18;;;;;;;5.35;1.63;;;;;;;18.87;89.55;94931.75;4960603;28;20030;-88
2022/09/21 10:40:45;;;;;;;3.13;1.00;;;;;;;18.92;80.55;94930.81;4960651;28;20023;-89
2022/09/21 10:43:29;;;;;;;4.93;0.95;;;;;;;19.28;76.46;94931.75;4960667;28;20027;-88
2022/09/21 10:45:56;;;;;;;3.30;0.80;;;;;;;19.31;79.03;94937.22;4960300;28;20483;-88
2022/09/21 10:48:23;;;;;;;4.85;0.70;;;;;;;19.04;74.58;94928.41;4960552;28;20022;-88
2022/09/21 10:50:50;;;;;;;2.80;0.60;;;;;;;18.75;75.85;94936.84;4960365;28;20026;-88
2022/09/21 10:53:22;;;;;;;3.20;0.90;;;;;;;18.78;76.32;94931.69;4960419;28;20073;-88
2022/09/21 10:55:56;;;;;;;1.47;0.60;;;;;;;19.08;71.77;94931.22;4977273;28;20049;-88
2022/09/21 10:58:21;;;;;;;;;;;;;;;19.49;69.43;94927.44;4960891;28;20045;-88
2022/09/21 11:00:50;;;;;;;2.13;0.73;;;;;;;19.43;73.18;94933.97;4944532;28;19910;-88
2022/09/21 11:03:57;;;;;;;3.38;0.68;;;;;;;19.70;70.49;94934.03;4944819;28;20428;-88
2022/09/21 11:06:43;;;;;;;1.75;0.68;;;;;;;18.79;73.96;94933.28;4964254;28;20093;-88
2022/09/21 11:09:15;;;;;;;6.35;0.68;;;;;;;18.41;73.38;94935.56;4960123;28;20059;-88
2022/09/21 11:11:59;;;;;;;2.10;0.50;;;;;;;18.44;74.92;94945.59;4944303;28;20062;-88
2022/09/21 11:14:34;;;;;;;0.65;0.32;;;;;;;17.45;79.99;94939.78;4960169;28;20190;-88
2022/09/21 11:17:19;;;;;;;1.40;0.60;;;;;;;18.02;80.84;94949.22;4977373;28;20039;-87
2022/09/21 11:19:55;;;;;;;3.00;0.70;;;;;;;18.16;77.02;94943.84;4960392;28;20125;-88
2022/09/21 11:22:59;;;;;;;3.35;0.70;;;;;;;18.16;76.05;94943.84;4960235;28;20030;-88
2022/09/21 11:25:29;;;;;;;1.48;0.47;;;;;;;17.93;77.92;94943.00;4943868;28;20467;-87
2022/09/21 11:28:01;;;;;;;2.42;0.70;;;;;;;18.22;76.83;94947.94;4980573;28;20037;-88
2022/09/21 11:30:32;;;;;;;8.98;1.05;;;;;;;18.13;73.90;94938.34;4963458;28;20023;-88
2022/09/21 11:33:23;;;;;;;2.97;0.70;;;;;;;18.36;70.01;94941.78;4963429;28;20058;-89
2022/09/21 11:36:04;;;;;;;2.47;0.60;;;;;;;18.40;68.59;94948.06;4963273;28;20030;-88
2022/09/21 11:38:35;;;;;;;3.08;0.80;;;;;;;18.86;65.23;94938.13;4980321;28;20053;-87
2022/09/21 11:41:06;;;;;;;2.90;0.68;;;;;;;19.81;62.38;94935.28;4963480;28;20034;-88
2022/09/21 11:43:41;;;;;;;2.22;0.77;;;;;;;20.21;63.20;94929.03;4980185;28;20033;-88
2022/09/21 11:46:06;;;;;;;5.70;0.60;;;;;;;19.81;67.73;94932.63;4962736;28;20027;-88
2022/09/21 11:48:58;;;;;;;1.17;0.50;;;;;;;21.02;60.49;94916.00;4962372;28;20341;-88
2022/09/21 11:51:36;;;;;;;2.13;0.50;;;;;;;20.00;60.71;94926.25;4949768;28;20349;-87
2022/09/21 11:54:33;;;;;;;2.95;0.60;;;;;;;20.03;58.82;94928.28;4979995;28;20031;-88
2022/09/21 11:57:19;;;;;;;1.45;0.60;;;;;;;20.74;57.13;94932.38;4962931;28;20023;-87